sensor_id;sensor_type;location;lat;lon;timestamp;temperature;humidity
39865;DHT22;25538;48.392;9.976;2022-11-02T00:01:13;9.40;99.90
39865;DHT22;25538;48.392;9.976;2022-11-02T00:03:39;9.40;99.90
39865;DHT22;25538;48.392;9.976;2022-11-02T00:06:05;9.30;99.90
39865;DHT22;25538;48.392;9.976;2022-11-02T00:08:31;9.20;99.90
39865;DHT22;25538;48.392;9.976;2022-11-02T00:10:57;9.20;99.90
39865;DHT22;25538;48.392;9.976;2022-11-02T00:13:23;9.10;99.90
39865;DHT22;25538;48.392;9.976;2022-11-02T00:15:49;9.10;99.90
39865;DHT22;25538;48.392;9.976;2022-11-02T00:18:15;9.00;99.90
39865;DHT22;25538;48.392;9.976;2022-11-02T00:20:42;9.10;99.90
39865;DHT22;25538;48.392;9.976;2022-11-02T00:23:08;9.00;99.90
39865;DHT22;25538;48.392;9.976;2022-11-02T00:25:38;9.00;99.90
39865;DHT22;25538;48.392;9.976;2022-11-02T00:28:06;9.00;99.90
39865;DHT22;25538;48.392;9.976;2022-11-02T00:30:32;9.00;99.90
39865;DHT22;25538;48.392;9.976;2022-11-02T00:32:59;9.00;99.90
39865;DHT22;25538;48.392;9.976;2022-11-02T00:35:25;9.00;99.90
39865;DHT22;25538;48.392;9.976;2022-11-02T00:37:51;9.00;99.90
39865;DHT22;25538;48.392;9.976;2022-11-02T00:40:17;9.00;99.90
39865;DHT22;25538;48.392;9.976;2022-11-02T00:42:43;9.00;99.90
39865;DHT22;25538;48.392;9.976;2022-11-02T00:45:09;9.10;99.90
39865;DHT22;25538;48.392;9.976;2022-11-02T00:47:35;9.20;99.90
39865;DHT22;25538;48.392;9.976;2022-11-02T00:50:01;9.30;99.90
39865;DHT22;25538;48.392;9.976;2022-11-02T00:52:27;9.40;99.90
39865;DHT22;25538;48.392;9.976;2022-11-02T00:54:53;9.40;99.90
39865;DHT22;25538;48.392;9.976;2022-11-02T00:57:19;9.50;99.90
39865;DHT22;25538;48.392;9.976;2022-11-02T00:59:45;9.60;99.90
39865;DHT22;25538;48.392;9.976;2022-11-02T01:02:11;9.70;99.90
39865;DHT22;25538;48.392;9.976;2022-11-02T01:04:37;9.70;99.90
39865;DHT22;25538;48.392;9.976;2022-11-02T01:07:03;9.70;99.90
39865;DHT22;25538;48.392;9.976;2022-11-02T01:09:29;9.60;99.90
39865;DHT22;25538;48.392;9.976;2022-11-02T01:11:55;9.60;99.90
39865;DHT22;25538;48.392;9.976;2022-11-02T01:14:22;9.50;99.90
39865;DHT22;25538;48.392;9.976;2022-11-02T01:16:48;9.50;99.90
39865;DHT22;25538;48.392;9.976;2022-11-02T01:19:14;9.40;99.90
39865;DHT22;25538;48.392;9.976;2022-11-02T01:21:40;9.20;99.90
39865;DHT22;25538;48.392;9.976;2022-11-02T01:24:06;9.00;99.90
39865;DHT22;25538;48.392;9.976;2022-11-02T01:26:32;8.90;99.90
39865;DHT22;25538;48.392;9.976;2022-11-02T01:28:58;8.80;99.90
39865;DHT22;25538;48.392;9.976;2022-11-02T01:31:24;8.80;99.90
39865;DHT22;25538;48.392;9.976;2022-11-02T01:33:50;8.80;99.90
39865;DHT22;25538;48.392;9.976;2022-11-02T01:36:17;8.80;99.90
39865;DHT22;25538;48.392;9.976;2022-11-02T01:38:47;8.70;99.90
39865;DHT22;25538;48.392;9.976;2022-11-02T01:41:14;8.70;99.90
39865;DHT22;25538;48.392;9.976;2022-11-02T01:43:44;8.60;99.90
39865;DHT22;25538;48.392;9.976;2022-11-02T01:51:18;8.50;99.90
39865;DHT22;25538;48.392;9.976;2022-11-02T01:53:46;8.50;99.90
39865;DHT22;25538;48.392;9.976;2022-11-02T01:56:17;8.50;99.90
39865;DHT22;25538;48.392;9.976;2022-11-02T01:58:47;8.40;99.90
39865;DHT22;25538;48.392;9.976;2022-11-02T02:01:16;8.40;99.90
39865;DHT22;25538;48.392;9.976;2022-11-02T02:03:42;8.40;99.90
39865;DHT22;25538;48.392;9.976;2022-11-02T02:06:11;8.40;99.90
39865;DHT22;25538;48.392;9.976;2022-11-02T02:08:41;8.30;99.90
39865;DHT22;25538;48.392;9.976;2022-11-02T02:11:27;8.30;99.90
39865;DHT22;25538;48.392;9.976;2022-11-02T02:13:59;8.30;99.90
39865;DHT22;25538;48.392;9.976;2022-11-02T02:24:47;8.30;99.90
39865;DHT22;25538;48.392;9.976;2022-11-02T02:30:19;8.30;99.90
39865;DHT22;25538;48.392;9.976;2022-11-02T02:33:10;8.30;99.90
39865;DHT22;25538;48.392;9.976;2022-11-02T02:38:51;8.20;99.90
39865;DHT22;25538;48.392;9.976;2022-11-02T02:43:59;8.20;99.90
39865;DHT22;25538;48.392;9.976;2022-11-02T02:46:43;8.20;99.90
39865;DHT22;25538;48.392;9.976;2022-11-02T02:49:11;8.10;99.90
39865;DHT22;25538;48.392;9.976;2022-11-02T02:51:41;8.20;99.90
39865;DHT22;25538;48.392;9.976;2022-11-02T02:54:13;8.20;99.90
39865;DHT22;25538;48.392;9.976;2022-11-02T02:56:42;8.20;99.90
39865;DHT22;25538;48.392;9.976;2022-11-02T02:59:22;8.20;99.90
39865;DHT22;25538;48.392;9.976;2022-11-02T03:01:49;8.20;99.90
39865;DHT22;25538;48.392;9.976;2022-11-02T03:04:15;8.10;99.90
39865;DHT22;25538;48.392;9.976;2022-11-02T03:06:45;8.10;99.90
39865;DHT22;25538;48.392;9.976;2022-11-02T03:09:43;8.10;99.90
39865;DHT22;25538;48.392;9.976;2022-11-02T03:14:52;8.00;99.90
39865;DHT22;25538;48.392;9.976;2022-11-02T03:17:31;7.90;99.90
39865;DHT22;25538;48.392;9.976;2022-11-02T03:23:16;7.80;99.90
39865;DHT22;25538;48.392;9.976;2022-11-02T03:25:58;7.80;99.90
39865;DHT22;25538;48.392;9.976;2022-11-02T03:34:23;7.70;99.90
39865;DHT22;25538;48.392;9.976;2022-11-02T03:37:12;7.70;99.90
39865;DHT22;25538;48.392;9.976;2022-11-02T03:42:33;7.80;99.90
39865;DHT22;25538;48.392;9.976;2022-11-02T03:45:14;7.80;99.90
39865;DHT22;25538;48.392;9.976;2022-11-02T03:47:44;7.80;99.90
39865;DHT22;25538;48.392;9.976;2022-11-02T03:50:12;7.80;99.90
39865;DHT22;25538;48.392;9.976;2022-11-02T03:52:42;7.80;99.90
39865;DHT22;25538;48.392;9.976;2022-11-02T03:55:25;7.80;99.90
39865;DHT22;25538;48.392;9.976;2022-11-02T03:57:53;7.80;99.90
39865;DHT22;25538;48.392;9.976;2022-11-02T04:00:24;7.80;99.90
39865;DHT22;25538;48.392;9.976;2022-11-02T04:02:53;7.80;99.90
39865;DHT22;25538;48.392;9.976;2022-11-02T04:05:33;7.80;99.90
39865;DHT22;25538;48.392;9.976;2022-11-02T04:07:59;7.80;99.90
39865;DHT22;25538;48.392;9.976;2022-11-02T04:10:44;7.80;99.90
39865;DHT22;25538;48.392;9.976;2022-11-02T04:13:29;7.70;99.90
39865;DHT22;25538;48.392;9.976;2022-11-02T04:16:14;7.70;99.90
39865;DHT22;25538;48.392;9.976;2022-11-02T04:18:41;7.70;99.90
39865;DHT22;25538;48.392;9.976;2022-11-02T04:21:26;7.70;99.90
39865;DHT22;25538;48.392;9.976;2022-11-02T04:23:52;7.80;99.90
39865;DHT22;25538;48.392;9.976;2022-11-02T04:26:36;7.80;99.90
39865;DHT22;25538;48.392;9.976;2022-11-02T04:29:03;7.80;99.90
39865;DHT22;25538;48.392;9.976;2022-11-02T04:31:29;7.90;99.90
39865;DHT22;25538;48.392;9.976;2022-11-02T04:33:55;7.90;99.90
39865;DHT22;25538;48.392;9.976;2022-11-02T04:36:23;8.00;99.90
39865;DHT22;25538;48.392;9.976;2022-11-02T04:38:49;8.00;99.90
39865;DHT22;25538;48.392;9.976;2022-11-02T04:41:17;8.10;99.90
39865;DHT22;25538;48.392;9.976;2022-11-02T04:44:02;8.10;99.90
39865;DHT22;25538;48.392;9.976;2022-11-02T04:46:32;8.10;99.90
39865;DHT22;25538;48.392;9.976;2022-11-02T04:48:58;8.20;99.90
39865;DHT22;25538;48.392;9.976;2022-11-02T04:51:25;8.20;99.90
39865;DHT22;25538;48.392;9.976;2022-11-02T04:53:52;8.10;99.90
39865;DHT22;25538;48.392;9.976;2022-11-02T04:56:19;8.10;99.90
39865;DHT22;25538;48.392;9.976;2022-11-02T04:58:49;8.10;99.90
39865;DHT22;25538;48.392;9.976;2022-11-02T05:01:16;8.00;99.90
39865;DHT22;25538;48.392;9.976;2022-11-02T05:03:42;8.10;99.90
39865;DHT22;25538;48.392;9.976;2022-11-02T05:06:11;8.00;99.90
39865;DHT22;25538;48.392;9.976;2022-11-02T05:08:37;8.00;99.90
39865;DHT22;25538;48.392;9.976;2022-11-02T05:11:03;7.90;99.90
39865;DHT22;25538;48.392;9.976;2022-11-02T05:13:29;7.90;99.90
39865;DHT22;25538;48.392;9.976;2022-11-02T05:15:56;7.90;99.90
39865;DHT22;25538;48.392;9.976;2022-11-02T05:18:23;7.90;99.90
39865;DHT22;25538;48.392;9.976;2022-11-02T05:20:54;7.90;99.90
39865;DHT22;25538;48.392;9.976;2022-11-02T05:23:21;8.00;99.90
39865;DHT22;25538;48.392;9.976;2022-11-02T05:26:09;8.00;99.90
39865;DHT22;25538;48.392;9.976;2022-11-02T05:28:35;8.00;99.90
39865;DHT22;25538;48.392;9.976;2022-11-02T05:31:01;8.10;99.90
39865;DHT22;25538;48.392;9.976;2022-11-02T05:33:29;8.10;99.90
39865;DHT22;25538;48.392;9.976;2022-11-02T05:35:56;8.20;99.90
39865;DHT22;25538;48.392;9.976;2022-11-02T05:38:23;8.20;99.90
39865;DHT22;25538;48.392;9.976;2022-11-02T05:40:57;8.20;99.90
39865;DHT22;25538;48.392;9.976;2022-11-02T05:43:24;8.30;99.90
39865;DHT22;25538;48.392;9.976;2022-11-02T05:45:52;8.30;99.90
39865;DHT22;25538;48.392;9.976;2022-11-02T05:48:18;8.30;99.90
39865;DHT22;25538;48.392;9.976;2022-11-02T05:50:44;8.30;99.90
39865;DHT22;25538;48.392;9.976;2022-11-02T05:53:10;8.30;99.90
39865;DHT22;25538;48.392;9.976;2022-11-02T05:55:36;8.30;99.90
39865;DHT22;25538;48.392;9.976;2022-11-02T05:58:03;8.30;99.90
39865;DHT22;25538;48.392;9.976;2022-11-02T06:00:29;8.20;99.90
39865;DHT22;25538;48.392;9.976;2022-11-02T06:02:58;8.30;99.90
39865;DHT22;25538;48.392;9.976;2022-11-02T06:05:25;8.20;99.90
39865;DHT22;25538;48.392;9.976;2022-11-02T06:07:51;8.20;99.90
39865;DHT22;25538;48.392;9.976;2022-11-02T06:10:17;8.30;99.90
39865;DHT22;25538;48.392;9.976;2022-11-02T06:12:43;8.30;99.90
39865;DHT22;25538;48.392;9.976;2022-11-02T06:15:09;8.30;99.90
39865;DHT22;25538;48.392;9.976;2022-11-02T06:17:39;8.30;99.90
39865;DHT22;25538;48.392;9.976;2022-11-02T06:20:06;8.30;99.90
39865;DHT22;25538;48.392;9.976;2022-11-02T06:22:39;8.20;99.90
39865;DHT22;25538;48.392;9.976;2022-11-02T06:25:06;8.30;99.90
39865;DHT22;25538;48.392;9.976;2022-11-02T06:27:33;8.30;99.90
39865;DHT22;25538;48.392;9.976;2022-11-02T06:29:59;8.40;99.90
39865;DHT22;25538;48.392;9.976;2022-11-02T06:32:25;8.40;99.90
39865;DHT22;25538;48.392;9.976;2022-11-02T06:34:51;8.50;99.90
39865;DHT22;25538;48.392;9.976;2022-11-02T06:37:17;8.60;99.90
39865;DHT22;25538;48.392;9.976;2022-11-02T06:39:43;8.60;99.90
39865;DHT22;25538;48.392;9.976;2022-11-02T06:42:09;8.60;99.90
39865;DHT22;25538;48.392;9.976;2022-11-02T06:44:35;8.60;99.90
39865;DHT22;25538;48.392;9.976;2022-11-02T06:47:01;8.60;99.90
39865;DHT22;25538;48.392;9.976;2022-11-02T06:49:27;8.60;99.90
39865;DHT22;25538;48.392;9.976;2022-11-02T06:51:53;8.60;99.90
39865;DHT22;25538;48.392;9.976;2022-11-02T06:54:19;8.70;99.90
39865;DHT22;25538;48.392;9.976;2022-11-02T06:56:45;8.70;99.90
39865;DHT22;25538;48.392;9.976;2022-11-02T06:59:10;8.80;99.90
39865;DHT22;25538;48.392;9.976;2022-11-02T07:01:36;8.90;99.90
39865;DHT22;25538;48.392;9.976;2022-11-02T07:04:02;8.90;99.90
39865;DHT22;25538;48.392;9.976;2022-11-02T07:06:28;9.00;99.90
39865;DHT22;25538;48.392;9.976;2022-11-02T07:08:54;9.10;99.90
39865;DHT22;25538;48.392;9.976;2022-11-02T07:11:20;9.20;99.90
39865;DHT22;25538;48.392;9.976;2022-11-02T07:13:47;9.40;99.90
39865;DHT22;25538;48.392;9.976;2022-11-02T07:16:13;9.40;99.90
39865;DHT22;25538;48.392;9.976;2022-11-02T07:18:40;9.50;99.90
39865;DHT22;25538;48.392;9.976;2022-11-02T07:21:06;9.50;99.90
39865;DHT22;25538;48.392;9.976;2022-11-02T07:23:32;9.60;99.90
39865;DHT22;25538;48.392;9.976;2022-11-02T07:26:00;9.70;99.90
39865;DHT22;25538;48.392;9.976;2022-11-02T07:28:27;9.90;99.90
39865;DHT22;25538;48.392;9.976;2022-11-02T07:30:53;10.00;99.90
39865;DHT22;25538;48.392;9.976;2022-11-02T07:33:20;10.10;99.90
39865;DHT22;25538;48.392;9.976;2022-11-02T07:35:46;10.10;99.90
39865;DHT22;25538;48.392;9.976;2022-11-02T07:38:12;10.20;99.90
39865;DHT22;25538;48.392;9.976;2022-11-02T07:40:38;10.20;99.90
39865;DHT22;25538;48.392;9.976;2022-11-02T07:43:05;10.30;99.90
39865;DHT22;25538;48.392;9.976;2022-11-02T07:45:31;10.40;99.90
39865;DHT22;25538;48.392;9.976;2022-11-02T07:47:58;10.50;99.90
39865;DHT22;25538;48.392;9.976;2022-11-02T07:50:24;10.60;99.90
39865;DHT22;25538;48.392;9.976;2022-11-02T07:52:53;10.70;99.90
39865;DHT22;25538;48.392;9.976;2022-11-02T07:55:25;10.80;99.90
39865;DHT22;25538;48.392;9.976;2022-11-02T07:58:06;10.90;99.90
39865;DHT22;25538;48.392;9.976;2022-11-02T08:00:36;11.20;99.90
39865;DHT22;25538;48.392;9.976;2022-11-02T08:03:04;11.40;99.90
39865;DHT22;25538;48.392;9.976;2022-11-02T08:05:33;11.70;99.90
39865;DHT22;25538;48.392;9.976;2022-11-02T08:08:04;12.20;99.90
39865;DHT22;25538;48.392;9.976;2022-11-02T08:10:32;12.40;99.90
39865;DHT22;25538;48.392;9.976;2022-11-02T08:12:58;12.80;99.90
39865;DHT22;25538;48.392;9.976;2022-11-02T08:15:25;13.30;99.90
39865;DHT22;25538;48.392;9.976;2022-11-02T08:18:03;13.80;99.90
39865;DHT22;25538;48.392;9.976;2022-11-02T08:20:31;14.20;99.90
39865;DHT22;25538;48.392;9.976;2022-11-02T08:22:57;14.60;99.90
39865;DHT22;25538;48.392;9.976;2022-11-02T08:25:24;15.00;99.90
39865;DHT22;25538;48.392;9.976;2022-11-02T08:27:50;15.20;99.90
39865;DHT22;25538;48.392;9.976;2022-11-02T08:30:16;15.60;99.90
39865;DHT22;25538;48.392;9.976;2022-11-02T08:32:43;16.20;99.90
39865;DHT22;25538;48.392;9.976;2022-11-02T08:35:09;16.80;99.90
39865;DHT22;25538;48.392;9.976;2022-11-02T08:37:35;17.10;99.90
39865;DHT22;25538;48.392;9.976;2022-11-02T08:40:01;17.20;99.90
39865;DHT22;25538;48.392;9.976;2022-11-02T08:42:27;17.00;99.90
39865;DHT22;25538;48.392;9.976;2022-11-02T08:44:53;16.60;99.90
39865;DHT22;25538;48.392;9.976;2022-11-02T08:47:18;15.90;99.90
39865;DHT22;25538;48.392;9.976;2022-11-02T08:49:44;15.10;99.90
39865;DHT22;25538;48.392;9.976;2022-11-02T08:52:11;14.10;99.90
39865;DHT22;25538;48.392;9.976;2022-11-02T08:54:37;13.40;99.90
39865;DHT22;25538;48.392;9.976;2022-11-02T08:57:03;13.30;99.90
39865;DHT22;25538;48.392;9.976;2022-11-02T08:59:29;13.40;99.90
39865;DHT22;25538;48.392;9.976;2022-11-02T09:01:55;13.40;99.90
39865;DHT22;25538;48.392;9.976;2022-11-02T09:04:21;13.30;99.90
39865;DHT22;25538;48.392;9.976;2022-11-02T09:06:47;13.30;99.90
39865;DHT22;25538;48.392;9.976;2022-11-02T09:09:13;13.90;99.90
39865;DHT22;25538;48.392;9.976;2022-11-02T09:11:39;14.90;99.90
39865;DHT22;25538;48.392;9.976;2022-11-02T09:14:05;15.40;99.90
39865;DHT22;25538;48.392;9.976;2022-11-02T09:16:32;15.40;99.90
39865;DHT22;25538;48.392;9.976;2022-11-02T09:18:58;15.30;99.90
39865;DHT22;25538;48.392;9.976;2022-11-02T09:21:24;15.00;99.90
39865;DHT22;25538;48.392;9.976;2022-11-02T09:23:50;14.90;99.90
39865;DHT22;25538;48.392;9.976;2022-11-02T09:26:16;14.70;99.90
39865;DHT22;25538;48.392;9.976;2022-11-02T09:28:42;14.70;99.90
39865;DHT22;25538;48.392;9.976;2022-11-02T09:31:08;14.60;99.90
39865;DHT22;25538;48.392;9.976;2022-11-02T09:33:34;14.60;99.90
39865;DHT22;25538;48.392;9.976;2022-11-02T09:36:02;14.60;99.90
39865;DHT22;25538;48.392;9.976;2022-11-02T09:38:29;14.80;99.90
39865;DHT22;25538;48.392;9.976;2022-11-02T09:43:54;15.30;99.90
39865;DHT22;25538;48.392;9.976;2022-11-02T09:46:36;15.40;99.90
39865;DHT22;25538;48.392;9.976;2022-11-02T09:49:08;15.20;99.90
39865;DHT22;25538;48.392;9.976;2022-11-02T09:51:39;14.80;99.90
39865;DHT22;25538;48.392;9.976;2022-11-02T09:54:17;14.60;99.90
39865;DHT22;25538;48.392;9.976;2022-11-02T09:56:45;14.50;99.90
39865;DHT22;25538;48.392;9.976;2022-11-02T09:59:19;14.80;99.90
39865;DHT22;25538;48.392;9.976;2022-11-02T10:07:50;15.30;99.90
39865;DHT22;25538;48.392;9.976;2022-11-02T10:10:33;15.40;99.90
39865;DHT22;25538;48.392;9.976;2022-11-02T10:13:59;15.30;99.90
39865;DHT22;25538;48.392;9.976;2022-11-02T10:16:23;15.30;99.90
39865;DHT22;25538;48.392;9.976;2022-11-02T10:18:52;15.30;99.90
39865;DHT22;25538;48.392;9.976;2022-11-02T10:21:22;15.40;99.90
39865;DHT22;25538;48.392;9.976;2022-11-02T10:23:54;15.70;99.90
39865;DHT22;25538;48.392;9.976;2022-11-02T10:26:28;16.60;99.90
39865;DHT22;25538;48.392;9.976;2022-11-02T10:28:59;17.10;99.90
39865;DHT22;25538;48.392;9.976;2022-11-02T10:31:32;17.10;99.90
39865;DHT22;25538;48.392;9.976;2022-11-02T10:34:11;17.00;99.90
39865;DHT22;25538;48.392;9.976;2022-11-02T10:47:29;17.40;99.90
39865;DHT22;25538;48.392;9.976;2022-11-02T10:51:18;17.20;99.90
39865;DHT22;25538;48.392;9.976;2022-11-02T10:53:17;16.70;99.90
39865;DHT22;25538;48.392;9.976;2022-11-02T10:58:20;16.40;99.90
39865;DHT22;25538;48.392;9.976;2022-11-02T11:00:46;16.00;99.90
39865;DHT22;25538;48.392;9.976;2022-11-02T11:03:15;16.00;99.90
39865;DHT22;25538;48.392;9.976;2022-11-02T11:10:51;16.10;99.90
39865;DHT22;25538;48.392;9.976;2022-11-02T11:13:21;16.30;99.90
39865;DHT22;25538;48.392;9.976;2022-11-02T11:15:51;16.40;99.90
39865;DHT22;25538;48.392;9.976;2022-11-02T11:18:20;16.60;99.90
39865;DHT22;25538;48.392;9.976;2022-11-02T11:20:53;16.30;99.90
39865;DHT22;25538;48.392;9.976;2022-11-02T11:23:24;16.00;99.90
39865;DHT22;25538;48.392;9.976;2022-11-02T11:31:03;15.90;99.90
39865;DHT22;25538;48.392;9.976;2022-11-02T11:33:31;15.80;99.90
39865;DHT22;25538;48.392;9.976;2022-11-02T11:35:58;15.80;99.90
39865;DHT22;25538;48.392;9.976;2022-11-02T11:38:25;15.80;99.90
39865;DHT22;25538;48.392;9.976;2022-11-02T11:40:54;15.90;99.90
39865;DHT22;25538;48.392;9.976;2022-11-02T11:43:28;16.00;99.90
39865;DHT22;25538;48.392;9.976;2022-11-02T11:46:03;16.00;99.90
39865;DHT22;25538;48.392;9.976;2022-11-02T11:54:29;16.10;99.90
39865;DHT22;25538;48.392;9.976;2022-11-02T11:57:19;16.20;99.90
39865;DHT22;25538;48.392;9.976;2022-11-02T11:59:49;16.30;99.90
39865;DHT22;25538;48.392;9.976;2022-11-02T12:02:22;16.40;99.90
39865;DHT22;25538;48.392;9.976;2022-11-02T12:04:50;16.50;99.90
39865;DHT22;25538;48.392;9.976;2022-11-02T12:07:38;16.70;99.90
39865;DHT22;25538;48.392;9.976;2022-11-02T12:13:13;17.00;99.90
39865;DHT22;25538;48.392;9.976;2022-11-02T12:26:27;16.00;99.90
39865;DHT22;25538;48.392;9.976;2022-11-02T12:35:11;15.60;99.90
39865;DHT22;25538;48.392;9.976;2022-11-02T12:41:15;16.00;99.90
39865;DHT22;25538;48.392;9.976;2022-11-02T12:43:44;16.00;99.90
39865;DHT22;25538;48.392;9.976;2022-11-02T12:54:20;16.20;99.90
39865;DHT22;25538;48.392;9.976;2022-11-02T12:56:53;16.20;99.90
39865;DHT22;25538;48.392;9.976;2022-11-02T12:59:24;16.30;99.90
39865;DHT22;25538;48.392;9.976;2022-11-02T13:02:05;16.40;99.90
39865;DHT22;25538;48.392;9.976;2022-11-02T13:07:15;16.30;99.90
39865;DHT22;25538;48.392;9.976;2022-11-02T13:12:13;16.80;99.90
39865;DHT22;25538;48.392;9.976;2022-11-02T13:14:49;17.70;99.90
39865;DHT22;25538;48.392;9.976;2022-11-02T13:19:56;21.50;99.90
39865;DHT22;25538;48.392;9.976;2022-11-02T13:22:27;23.30;99.90
39865;DHT22;25538;48.392;9.976;2022-11-02T13:25:00;25.00;99.90
39865;DHT22;25538;48.392;9.976;2022-11-02T13:27:46;25.70;99.90
39865;DHT22;25538;48.392;9.976;2022-11-02T13:30:15;27.30;92.00
39865;DHT22;25538;48.392;9.976;2022-11-02T13:32:57;27.60;89.00
39865;DHT22;25538;48.392;9.976;2022-11-02T13:35:37;27.90;84.20
39865;DHT22;25538;48.392;9.976;2022-11-02T13:38:32;28.00;79.20
39865;DHT22;25538;48.392;9.976;2022-11-02T13:49:00;29.20;61.20
39865;DHT22;25538;48.392;9.976;2022-11-02T13:51:39;28.60;60.70
39865;DHT22;25538;48.392;9.976;2022-11-02T13:54:21;28.70;59.90
39865;DHT22;25538;48.392;9.976;2022-11-02T13:56:53;29.10;59.00
39865;DHT22;25538;48.392;9.976;2022-11-02T13:59:30;29.50;58.10
39865;DHT22;25538;48.392;9.976;2022-11-02T14:02:02;29.80;56.50
39865;DHT22;25538;48.392;9.976;2022-11-02T14:04:36;29.00;56.30
39865;DHT22;25538;48.392;9.976;2022-11-02T14:07:05;27.60;58.00
39865;DHT22;25538;48.392;9.976;2022-11-02T14:09:36;27.40;59.40
39865;DHT22;25538;48.392;9.976;2022-11-02T14:14:45;25.50;63.40
39865;DHT22;25538;48.392;9.976;2022-11-02T14:20:34;26.10;63.50
39865;DHT22;25538;48.392;9.976;2022-11-02T14:25:54;26.10;63.30
39865;DHT22;25538;48.392;9.976;2022-11-02T14:33:55;26.10;63.10
39865;DHT22;25538;48.392;9.976;2022-11-02T14:44:25;24.90;62.90
39865;DHT22;25538;48.392;9.976;2022-11-02T14:49:37;23.90;66.80
39865;DHT22;25538;48.392;9.976;2022-11-02T14:52:16;24.50;64.90
39865;DHT22;25538;48.392;9.976;2022-11-02T14:57:50;24.10;65.60
39865;DHT22;25538;48.392;9.976;2022-11-02T15:02:47;23.40;67.00
39865;DHT22;25538;48.392;9.976;2022-11-02T15:05:40;22.20;69.80
39865;DHT22;25538;48.392;9.976;2022-11-02T15:08:15;20.90;73.50
39865;DHT22;25538;48.392;9.976;2022-11-02T15:10:45;19.80;76.60
39865;DHT22;25538;48.392;9.976;2022-11-02T15:16:21;18.60;80.80
39865;DHT22;25538;48.392;9.976;2022-11-02T15:18:48;17.80;83.70
39865;DHT22;25538;48.392;9.976;2022-11-02T15:26:24;16.70;90.40
39865;DHT22;25538;48.392;9.976;2022-11-02T15:28:55;16.50;91.00
39865;DHT22;25538;48.392;9.976;2022-11-02T15:31:23;16.40;91.80
39865;DHT22;25538;48.392;9.976;2022-11-02T15:33:53;16.20;92.50
39865;DHT22;25538;48.392;9.976;2022-11-02T15:38:49;15.70;94.10
39865;DHT22;25538;48.392;9.976;2022-11-02T16:00:10;15.30;99.70
39865;DHT22;25538;48.392;9.976;2022-11-02T16:02:51;15.30;99.90
39865;DHT22;25538;48.392;9.976;2022-11-02T16:05:22;15.20;99.90
39865;DHT22;25538;48.392;9.976;2022-11-02T16:07:50;15.20;99.90
39865;DHT22;25538;48.392;9.976;2022-11-02T16:10:32;15.10;99.90
39865;DHT22;25538;48.392;9.976;2022-11-02T16:13:20;15.10;99.90
39865;DHT22;25538;48.392;9.976;2022-11-02T16:15:48;15.10;99.90
39865;DHT22;25538;48.392;9.976;2022-11-02T16:21:06;15.10;99.90
39865;DHT22;25538;48.392;9.976;2022-11-02T16:23:38;15.00;99.90
39865;DHT22;25538;48.392;9.976;2022-11-02T16:26:06;15.00;99.90
39865;DHT22;25538;48.392;9.976;2022-11-02T16:28:37;14.90;99.90
39865;DHT22;25538;48.392;9.976;2022-11-02T16:33:49;14.70;99.90
39865;DHT22;25538;48.392;9.976;2022-11-02T16:36:18;14.70;99.90
39865;DHT22;25538;48.392;9.976;2022-11-02T16:38:59;14.60;99.90
39865;DHT22;25538;48.392;9.976;2022-11-02T16:41:28;14.50;99.90
39865;DHT22;25538;48.392;9.976;2022-11-02T16:43:56;14.50;99.90
39865;DHT22;25538;48.392;9.976;2022-11-02T16:46:38;14.50;99.90
39865;DHT22;25538;48.392;9.976;2022-11-02T16:49:17;14.40;99.90
39865;DHT22;25538;48.392;9.976;2022-11-02T16:52:40;14.30;99.90
39865;DHT22;25538;48.392;9.976;2022-11-02T16:54:59;14.20;99.90
39865;DHT22;25538;48.392;9.976;2022-11-02T16:57:43;14.20;99.90
39865;DHT22;25538;48.392;9.976;2022-11-02T17:00:17;14.10;99.90
39865;DHT22;25538;48.392;9.976;2022-11-02T17:02:44;14.00;99.90
39865;DHT22;25538;48.392;9.976;2022-11-02T17:05:16;13.90;99.90
39865;DHT22;25538;48.392;9.976;2022-11-02T17:07:59;13.90;99.90
39865;DHT22;25538;48.392;9.976;2022-11-02T17:10:31;13.80;99.90
39865;DHT22;25538;48.392;9.976;2022-11-02T17:12:58;13.70;99.90
39865;DHT22;25538;48.392;9.976;2022-11-02T17:15:27;13.70;99.90
39865;DHT22;25538;48.392;9.976;2022-11-02T17:18:14;13.60;99.90
39865;DHT22;25538;48.392;9.976;2022-11-02T17:23:37;13.60;99.90
39865;DHT22;25538;48.392;9.976;2022-11-02T17:28:53;13.50;99.90
39865;DHT22;25538;48.392;9.976;2022-11-02T17:31:25;13.50;99.90
39865;DHT22;25538;48.392;9.976;2022-11-02T17:33:52;13.50;99.90
39865;DHT22;25538;48.392;9.976;2022-11-02T17:36:19;13.50;99.90
39865;DHT22;25538;48.392;9.976;2022-11-02T17:38:45;13.40;99.90
39865;DHT22;25538;48.392;9.976;2022-11-02T17:41:16;13.50;99.90
39865;DHT22;25538;48.392;9.976;2022-11-02T17:44:02;13.50;99.90
39865;DHT22;25538;48.392;9.976;2022-11-02T17:46:28;13.50;99.90
39865;DHT22;25538;48.392;9.976;2022-11-02T17:48:54;13.40;99.90
39865;DHT22;25538;48.392;9.976;2022-11-02T17:51:23;13.40;99.90
39865;DHT22;25538;48.392;9.976;2022-11-02T17:53:50;13.30;99.90
39865;DHT22;25538;48.392;9.976;2022-11-02T17:56:16;13.20;99.90
39865;DHT22;25538;48.392;9.976;2022-11-02T17:58:42;13.10;99.90
39865;DHT22;25538;48.392;9.976;2022-11-02T18:01:10;13.00;99.90
39865;DHT22;25538;48.392;9.976;2022-11-02T18:03:36;12.90;99.90
39865;DHT22;25538;48.392;9.976;2022-11-02T18:06:02;12.80;99.90
39865;DHT22;25538;48.392;9.976;2022-11-02T18:08:28;12.70;99.90
39865;DHT22;25538;48.392;9.976;2022-11-02T18:10:54;12.70;99.90
39865;DHT22;25538;48.392;9.976;2022-11-02T18:13:22;12.60;99.90
39865;DHT22;25538;48.392;9.976;2022-11-02T18:15:48;12.60;99.90
39865;DHT22;25538;48.392;9.976;2022-11-02T18:18:14;12.50;99.90
39865;DHT22;25538;48.392;9.976;2022-11-02T18:20:40;12.50;99.90
39865;DHT22;25538;48.392;9.976;2022-11-02T18:23:09;12.50;99.90
39865;DHT22;25538;48.392;9.976;2022-11-02T18:25:38;12.40;99.90
39865;DHT22;25538;48.392;9.976;2022-11-02T18:28:03;12.40;99.90
39865;DHT22;25538;48.392;9.976;2022-11-02T18:30:30;12.30;99.90
39865;DHT22;25538;48.392;9.976;2022-11-02T18:32:58;12.30;99.90
39865;DHT22;25538;48.392;9.976;2022-11-02T18:35:25;12.30;99.90
39865;DHT22;25538;48.392;9.976;2022-11-02T18:37:51;12.20;99.90
39865;DHT22;25538;48.392;9.976;2022-11-02T18:40:18;12.20;99.90
39865;DHT22;25538;48.392;9.976;2022-11-02T18:42:44;12.20;99.90
39865;DHT22;25538;48.392;9.976;2022-11-02T18:45:13;12.20;99.90
39865;DHT22;25538;48.392;9.976;2022-11-02T18:47:39;12.10;99.90
39865;DHT22;25538;48.392;9.976;2022-11-02T18:50:07;12.10;99.90
39865;DHT22;25538;48.392;9.976;2022-11-02T18:52:35;12.10;99.90
39865;DHT22;25538;48.392;9.976;2022-11-02T18:55:01;12.10;99.90
39865;DHT22;25538;48.392;9.976;2022-11-02T18:57:31;12.10;99.90
39865;DHT22;25538;48.392;9.976;2022-11-02T18:59:57;12.10;99.90
39865;DHT22;25538;48.392;9.976;2022-11-02T19:02:24;12.10;99.90
39865;DHT22;25538;48.392;9.976;2022-11-02T19:04:50;12.10;99.90
39865;DHT22;25538;48.392;9.976;2022-11-02T19:07:16;12.10;99.90
39865;DHT22;25538;48.392;9.976;2022-11-02T19:10:01;12.00;99.90